createdAt,value
2023-02-01T00:01:18.676Z,12.88
2023-02-01T00:03:52.033Z,14.73
2023-02-01T00:06:25.402Z,14.15
2023-02-01T00:08:58.968Z,16.10
2023-02-01T00:11:32.316Z,10.30
2023-02-01T00:14:07.749Z,13.65
2023-02-01T00:16:42.302Z,11.70
2023-02-01T00:19:16.875Z,11.60
2023-02-01T00:21:50.350Z,13.52
2023-02-01T00:24:23.691Z,17.10
2023-02-01T00:26:56.939Z,12.25
2023-02-01T00:29:31.732Z,13.77
2023-02-01T00:32:05.786Z,10.63
2023-02-01T00:34:39.292Z,11.50
2023-02-01T00:37:12.815Z,10.00
2023-02-01T00:39:45.971Z,10.65
2023-02-01T00:42:19.224Z,9.63
2023-02-01T00:44:53.764Z,7.03
2023-02-01T00:47:27.779Z,9.07
2023-02-01T00:50:01.285Z,8.43
2023-02-01T00:52:34.478Z,8.57
2023-02-01T00:55:08.365Z,10.82
2023-02-01T00:57:41.839Z,13.48
2023-02-01T01:00:18.008Z,13.77
2023-02-01T01:02:51.337Z,10.50
2023-02-01T01:05:24.875Z,11.93
2023-02-01T01:07:58.264Z,11.82
2023-02-01T01:10:31.545Z,11.40
2023-02-01T01:15:41.556Z,10.30
2023-02-01T01:18:14.883Z,8.95
2023-02-01T01:20:49.941Z,9.18
2023-02-01T01:23:23.531Z,15.05
2023-02-01T01:25:56.787Z,9.23
2023-02-01T01:28:30.559Z,9.30
2023-02-01T01:31:05.813Z,14.50
2023-02-01T01:33:39.477Z,9.70
2023-02-01T01:38:47.531Z,11.00
2023-02-01T01:41:23.904Z,12.98
2023-02-01T01:43:58.719Z,9.85
2023-02-01T01:46:34.946Z,9.15
2023-02-01T01:49:12.682Z,10.82
2023-02-01T01:52:01.413Z,9.02
2023-02-01T01:54:37.298Z,9.15
2023-02-01T01:57:14.207Z,7.40
2023-02-01T01:59:52.201Z,10.27
2023-02-01T02:02:26.941Z,8.02
2023-02-01T02:05:00.334Z,6.75
2023-02-01T02:07:39.955Z,10.63
2023-02-01T02:10:14.600Z,6.82
2023-02-01T02:12:50.723Z,6.03
2023-02-01T02:15:25.041Z,7.32
2023-02-01T02:18:07.279Z,8.68
2023-02-01T02:21:04.121Z,15.52
2023-02-01T02:24:11.660Z,6.30
2023-02-01T02:27:04.838Z,7.18
2023-02-01T02:30:11.764Z,6.80
2023-02-01T02:33:10.623Z,6.53
2023-02-01T02:35:50.181Z,8.93
2023-02-01T02:38:31.978Z,6.35
2023-02-01T02:41:39.758Z,5.60
2023-02-01T02:44:33.971Z,4.85
2023-02-01T02:50:29.580Z,4.10
2023-02-01T02:53:27.813Z,6.80
2023-02-01T02:56:20.056Z,4.68
2023-02-01T02:59:11.816Z,4.45
2023-02-01T03:02:03.283Z,8.07
2023-02-01T03:04:36.586Z,7.25
2023-02-01T03:07:15.307Z,7.28
2023-02-01T03:09:51.381Z,6.05
2023-02-01T03:12:57.526Z,5.43
2023-02-01T03:15:37.748Z,4.72
2023-02-01T03:18:17.203Z,9.57
2023-02-01T03:20:54.403Z,4.13
2023-02-01T03:23:32.974Z,10.38
2023-02-01T03:26:11.937Z,6.10
2023-02-01T03:28:50.197Z,8.05
2023-02-01T03:31:24.265Z,8.57
2023-02-01T03:33:58.090Z,5.60
2023-02-01T03:36:37.952Z,17.10
2023-02-01T03:39:17.817Z,5.82
2023-02-01T03:41:56.110Z,7.05
2023-02-01T03:44:35.823Z,8.38
2023-02-01T03:47:13.739Z,6.80
2023-02-01T03:49:50.908Z,6.47
2023-02-01T03:52:28.152Z,6.47
2023-02-01T03:55:03.347Z,8.20
2023-02-01T03:57:41.545Z,9.35
2023-02-01T04:00:19.752Z,9.50
2023-02-01T04:02:54.308Z,7.25
2023-02-01T04:05:27.883Z,7.10
2023-02-01T04:08:01.654Z,7.00
2023-02-01T04:10:34.995Z,4.72
2023-02-01T04:13:10.384Z,6.55
2023-02-01T04:15:44.153Z,7.70
2023-02-01T04:18:17.547Z,5.53
2023-02-01T04:20:50.836Z,4.50
2023-02-01T04:23:24.415Z,9.90
2023-02-01T04:26:01.470Z,7.03
2023-02-01T04:28:36.577Z,6.53
2023-02-01T04:31:10.257Z,8.32
2023-02-01T04:33:43.551Z,8.63
2023-02-01T04:36:20.606Z,6.72
2023-02-01T04:38:54.594Z,7.28
2023-02-01T04:41:27.811Z,6.97
2023-02-01T04:44:02.775Z,6.85
2023-02-01T04:46:36.142Z,7.78
2023-02-01T04:49:11.033Z,7.03
2023-02-01T04:51:45.171Z,7.43
2023-02-01T04:54:18.885Z,8.25
2023-02-01T04:56:52.126Z,6.32
2023-02-01T04:59:26.860Z,6.03
2023-02-01T05:02:00.357Z,7.20
2023-02-01T05:04:33.878Z,11.57
2023-02-01T05:07:07.459Z,14.82
2023-02-01T05:09:41.137Z,46.55
2023-02-01T05:12:32.665Z,74.05
2023-02-01T05:15:09.046Z,44.78
2023-02-01T05:17:43.278Z,35.50
2023-02-01T05:20:16.732Z,28.67
2023-02-01T05:22:49.946Z,17.02
2023-02-01T05:25:23.463Z,14.65
2023-02-01T05:27:56.913Z,14.63
2023-02-01T05:30:33.521Z,12.23
2023-02-01T05:33:07.373Z,11.30
2023-02-01T05:35:40.783Z,9.15
2023-02-01T05:38:17.443Z,10.48
2023-02-01T05:40:50.938Z,12.50
2023-02-01T05:43:24.508Z,12.13
2023-02-01T05:45:59.691Z,20.65
2023-02-01T05:48:33.284Z,21.58
2023-02-01T05:51:06.745Z,16.20
2023-02-01T05:53:40.026Z,23.17
2023-02-01T05:56:13.335Z,18.77
2023-02-01T05:58:46.678Z,26.05
2023-02-01T06:01:21.350Z,14.38
2023-02-01T06:03:54.757Z,15.18
2023-02-01T06:06:28.625Z,16.45
2023-02-01T06:09:02.053Z,17.92
2023-02-01T06:11:35.424Z,12.55
2023-02-01T06:14:08.971Z,23.45
2023-02-01T06:16:43.701Z,25.50
2023-02-01T06:19:17.385Z,33.33
2023-02-01T06:24:24.560Z,7.67
2023-02-01T06:26:57.956Z,11.13
2023-02-01T06:29:31.400Z,15.80
2023-02-01T06:32:06.205Z,11.48
2023-02-01T06:34:40.631Z,13.25
2023-02-01T06:37:13.926Z,9.05
2023-02-01T06:39:47.934Z,16.90
2023-02-01T06:42:21.450Z,14.10
2023-02-01T06:44:54.660Z,15.48
2023-02-01T06:47:29.578Z,14.18
2023-02-01T06:50:03.993Z,14.48
2023-02-01T06:52:37.877Z,11.73
2023-02-01T06:55:11.987Z,10.10
2023-02-01T06:57:45.692Z,11.95
2023-02-01T07:00:20.053Z,10.85
2023-02-01T07:02:54.694Z,9.57
2023-02-01T07:05:28.069Z,10.63
2023-02-01T07:08:01.350Z,16.65
2023-02-01T07:10:36.418Z,15.25
2023-02-01T07:13:10.373Z,14.75
2023-02-01T07:15:43.791Z,10.27
2023-02-01T07:20:52.594Z,18.65
2023-02-01T07:23:25.873Z,12.60
2023-02-01T07:26:02.251Z,10.60
2023-02-01T07:28:37.168Z,10.25
2023-02-01T07:31:12.057Z,6.68
2023-02-01T07:33:47.323Z,7.25
2023-02-01T07:36:21.629Z,8.73
2023-02-01T07:38:56.845Z,9.90
2023-02-01T07:41:31.031Z,13.57
2023-02-01T07:44:04.315Z,11.85
2023-02-01T07:46:37.763Z,11.65
2023-02-01T07:49:14.935Z,10.70
2023-02-01T07:51:48.122Z,28.55
2023-02-01T07:54:21.699Z,17.65
2023-02-01T07:56:55.448Z,12.95
2023-02-01T07:59:28.722Z,10.55
2023-02-01T08:02:01.116Z,17.73
2023-02-01T08:04:35.816Z,17.42
2023-02-01T08:07:09.091Z,12.75
2023-02-01T08:09:42.702Z,22.17
2023-02-01T08:12:17.627Z,12.07
2023-02-01T08:14:52.006Z,8.40
2023-02-01T08:17:25.643Z,7.65
2023-02-01T08:20:00.810Z,11.95
2023-02-01T08:22:34.644Z,15.15
2023-02-01T08:25:08.905Z,9.48
2023-02-01T08:27:42.721Z,9.85
2023-02-01T08:30:16.739Z,13.40
2023-02-01T08:35:37.851Z,28.40
2023-02-01T08:38:16.285Z,12.05
2023-02-01T08:40:49.602Z,7.80
2023-02-01T08:43:22.677Z,10.20
2023-02-01T08:45:57.295Z,11.02
2023-02-01T08:48:30.844Z,10.20
2023-02-01T08:51:06.714Z,9.77
2023-02-01T08:53:42.371Z,8.38
2023-02-01T08:56:18.006Z,9.05
2023-02-01T08:58:51.344Z,12.25
2023-02-01T09:01:24.720Z,9.25
2023-02-01T09:03:57.929Z,10.23
2023-02-01T09:06:32.707Z,6.22
2023-02-01T09:09:06.311Z,8.75
2023-02-01T09:11:39.564Z,11.73
2023-02-01T09:14:13.258Z,6.15
2023-02-01T09:19:26.264Z,7.95
2023-02-01T09:22:01.734Z,9.65
2023-02-01T09:24:35.454Z,6.72
2023-02-01T09:27:09.019Z,8.15
2023-02-01T09:29:42.393Z,6.75
2023-02-01T09:32:15.624Z,8.52
2023-02-01T09:34:49.541Z,8.60
2023-02-01T09:37:24.394Z,10.60
2023-02-01T09:39:58.046Z,4.78
2023-02-01T09:42:52.037Z,5.68
2023-02-01T09:45:35.213Z,10.10
2023-02-01T09:48:17.638Z,9.68
2023-02-01T09:50:56.080Z,8.23
2023-02-01T09:53:35.256Z,8.00
2023-02-01T09:56:13.953Z,7.00
2023-02-01T09:58:54.252Z,5.88
2023-02-01T10:01:30.374Z,12.50
2023-02-01T10:04:08.079Z,9.82
2023-02-01T10:06:55.529Z,5.30
2023-02-01T10:09:44.902Z,5.28
2023-02-01T10:12:40.538Z,5.90
2023-02-01T10:15:37.362Z,5.47
2023-02-01T10:18:36.590Z,6.43
2023-02-01T10:21:21.632Z,6.22
2023-02-01T10:24:31.217Z,5.43
2023-02-01T10:27:14.728Z,10.30
2023-02-01T10:29:54.438Z,4.10
2023-02-01T10:32:32.847Z,11.32
2023-02-01T10:35:15.314Z,4.97
2023-02-01T10:37:48.756Z,5.18
2023-02-01T10:40:25.824Z,4.55
2023-02-01T10:43:03.194Z,5.40
2023-02-01T10:45:36.739Z,3.83
2023-02-01T10:48:10.851Z,5.60
2023-02-01T10:50:53.537Z,7.03
2023-02-01T10:53:33.516Z,8.15
2023-02-01T10:56:09.604Z,5.80
2023-02-01T10:58:49.631Z,3.70
2023-02-01T11:01:27.391Z,6.75
2023-02-01T11:04:02.441Z,5.70
2023-02-01T11:06:38.642Z,5.03
2023-02-01T11:09:18.807Z,5.38
2023-02-01T11:11:58.681Z,8.27
2023-02-01T11:14:41.216Z,9.85
2023-02-01T11:17:29.373Z,6.97
2023-02-01T11:20:05.235Z,6.32
2023-02-01T11:22:38.837Z,6.75
2023-02-01T11:25:16.059Z,6.65
2023-02-01T11:27:55.240Z,6.70
2023-02-01T11:30:36.870Z,12.77
2023-02-01T11:33:17.501Z,8.95
2023-02-01T11:35:51.502Z,7.28
2023-02-01T11:38:31.969Z,4.78
2023-02-01T11:41:16.198Z,7.97
2023-02-01T11:43:55.283Z,4.40
2023-02-01T11:46:33.295Z,4.68
2023-02-01T11:49:21.314Z,7.97
2023-02-01T11:52:06.192Z,10.15
2023-02-01T11:55:01.229Z,5.10
2023-02-01T11:57:53.999Z,6.32
2023-02-01T12:00:49.115Z,6.90
2023-02-01T12:03:59.397Z,8.55
2023-02-01T12:06:47.577Z,9.20
2023-02-01T12:09:40.523Z,3.83
2023-02-01T12:12:21.586Z,4.93
2023-02-01T12:15:24.487Z,5.03
2023-02-01T12:18:33.025Z,5.10
2023-02-01T12:21:19.771Z,4.47
2023-02-01T12:24:10.348Z,6.70
2023-02-01T12:26:52.802Z,6.30
2023-02-01T12:30:01.875Z,3.03
2023-02-01T12:32:46.273Z,4.38
2023-02-01T12:35:45.314Z,7.53
2023-02-01T12:38:35.268Z,4.32
2023-02-01T12:41:22.235Z,3.67
2023-02-01T12:43:59.136Z,4.85
2023-02-01T12:46:35.500Z,2.60
2023-02-01T12:49:15.078Z,3.53
2023-02-01T12:51:51.715Z,4.85
2023-02-01T12:54:33.441Z,7.43
2023-02-01T12:57:11.718Z,8.55
2023-02-01T12:59:52.007Z,3.25
2023-02-01T13:02:37.061Z,6.00
2023-02-01T13:05:18.450Z,7.32
2023-02-01T13:07:57.405Z,5.95
2023-02-01T13:10:36.223Z,7.03
2023-02-01T13:13:16.606Z,7.10
2023-02-01T13:15:58.208Z,7.15
2023-02-01T13:18:38.421Z,6.13
2023-02-01T13:21:17.086Z,3.08
2023-02-01T13:23:52.299Z,5.63
2023-02-01T13:26:27.371Z,3.17
2023-02-01T13:29:06.206Z,2.55
2023-02-01T13:32:03.213Z,4.45
2023-02-01T13:35:03.955Z,3.67
2023-02-01T13:38:24.619Z,4.50
2023-02-01T13:41:16.592Z,6.05
2023-02-01T13:43:55.223Z,8.50
2023-02-01T13:46:30.015Z,12.02
2023-02-01T13:49:05.325Z,3.53
2023-02-01T13:51:43.176Z,3.80
2023-02-01T13:54:29.717Z,4.82
2023-02-01T13:57:04.798Z,3.50
2023-02-01T13:59:51.896Z,4.53
2023-02-01T14:02:54.125Z,5.90
2023-02-01T14:06:04.730Z,3.97
2023-02-01T14:08:44.981Z,6.03
2023-02-01T14:11:39.703Z,5.60
2023-02-01T14:14:49.961Z,6.50
2023-02-01T14:17:35.988Z,6.22
2023-02-01T14:20:42.347Z,6.75
2023-02-01T14:23:40.849Z,4.65
2023-02-01T14:26:23.287Z,3.95
2023-02-01T14:29:03.029Z,7.32
2023-02-01T14:31:44.582Z,4.65
2023-02-01T14:34:23.180Z,6.30
2023-02-01T14:37:00.368Z,9.43
2023-02-01T14:39:52.739Z,4.95
2023-02-01T14:42:29.102Z,6.35
2023-02-01T14:45:51.196Z,6.70
2023-02-01T14:48:48.024Z,8.45
2023-02-01T14:51:23.109Z,4.80
2023-02-01T14:53:56.681Z,6.80
2023-02-01T14:59:11.039Z,7.07
2023-02-01T15:01:52.993Z,6.32
2023-02-01T15:04:29.742Z,6.72
2023-02-01T15:07:10.616Z,3.30
2023-02-01T15:09:47.690Z,5.00
2023-02-01T15:12:28.597Z,6.22
2023-02-01T15:15:13.800Z,4.57
2023-02-01T15:17:56.256Z,8.80
2023-02-01T15:20:34.037Z,6.65
2023-02-01T15:23:18.029Z,5.13
2023-02-01T15:25:53.671Z,9.95
2023-02-01T15:28:28.390Z,9.55
2023-02-01T15:31:03.979Z,11.13
2023-02-01T15:33:37.506Z,7.88
2023-02-01T15:36:14.037Z,6.43
2023-02-01T15:38:47.819Z,7.57
2023-02-01T15:41:23.964Z,7.97
2023-02-01T15:44:07.873Z,12.77
2023-02-01T15:49:25.661Z,5.15
2023-02-01T15:52:02.354Z,8.43
2023-02-01T15:54:45.671Z,9.45
2023-02-01T15:57:22.897Z,6.88
2023-02-01T15:59:57.627Z,8.98
2023-02-01T16:05:34.430Z,9.77
2023-02-01T16:08:15.036Z,8.85
2023-02-01T16:10:51.441Z,9.13
2023-02-01T16:13:25.530Z,7.28
2023-02-01T16:15:59.372Z,12.43
2023-02-01T16:18:32.950Z,13.45
2023-02-01T16:21:08.971Z,11.07
2023-02-01T16:23:44.073Z,10.43
2023-02-01T16:26:17.268Z,14.43
2023-02-01T16:28:50.716Z,8.25
2023-02-01T16:31:29.289Z,11.85
2023-02-01T16:34:03.187Z,13.88
2023-02-01T16:36:36.697Z,17.67
2023-02-01T16:39:15.003Z,14.82
2023-02-01T16:41:48.664Z,18.45
2023-02-01T16:44:21.980Z,18.27
2023-02-01T16:46:55.197Z,19.25
2023-02-01T16:49:28.787Z,21.75
2023-02-01T16:54:37.186Z,25.35
2023-02-01T16:57:14.546Z,26.70
2023-02-01T16:59:47.772Z,30.80
2023-02-01T17:02:22.911Z,20.83
2023-02-01T17:04:56.577Z,22.02
2023-02-01T17:07:31.471Z,18.40
2023-02-01T17:10:07.353Z,13.45
2023-02-01T17:12:42.642Z,13.82
2023-02-01T17:15:16.373Z,13.57
2023-02-01T17:17:54.995Z,14.02
2023-02-01T17:20:33.064Z,23.95
2023-02-01T17:23:06.536Z,24.17
2023-02-01T17:25:42.040Z,31.75
2023-02-01T17:28:15.518Z,33.22
2023-02-01T17:30:49.007Z,32.63
2023-02-01T17:38:30.967Z,30.33
2023-02-01T17:41:06.412Z,27.02
2023-02-01T17:43:40.311Z,24.27
2023-02-01T17:46:15.592Z,25.73
2023-02-01T17:48:49.092Z,26.42
2023-02-01T17:51:25.133Z,18.98
2023-02-01T17:53:58.402Z,15.43
2023-02-01T17:56:33.979Z,11.10
2023-02-01T17:59:07.239Z,11.15
2023-02-01T18:01:41.291Z,8.88
2023-02-01T18:04:18.325Z,11.45
2023-02-01T18:06:51.641Z,11.68
2023-02-01T18:09:25.416Z,8.70
2023-02-01T18:12:01.202Z,18.17
2023-02-01T18:14:34.707Z,19.98
2023-02-01T18:17:08.195Z,31.27
2023-02-01T18:19:42.053Z,35.47
2023-02-01T18:22:25.713Z,41.28
2023-02-01T18:24:59.071Z,50.70
2023-02-01T18:27:33.675Z,48.97
2023-02-01T18:30:07.886Z,46.78
2023-02-01T18:32:41.934Z,43.30
2023-02-01T18:35:21.429Z,45.97
2023-02-01T18:37:56.542Z,41.72
2023-02-01T18:40:33.122Z,42.47
2023-02-01T18:45:49.372Z,43.38
2023-02-01T18:48:23.014Z,33.65
2023-02-01T18:50:57.850Z,35.63
2023-02-01T18:53:31.361Z,30.60
2023-02-01T18:58:39.844Z,34.80
2023-02-01T19:01:17.192Z,40.08
2023-02-01T19:03:53.634Z,32.17
2023-02-01T19:06:30.013Z,34.97
2023-02-01T19:09:03.359Z,36.78
2023-02-01T19:11:37.160Z,31.65
2023-02-01T19:14:12.432Z,32.45
2023-02-01T19:16:46.145Z,49.83
2023-02-01T19:19:19.586Z,41.88
2023-02-01T19:21:52.850Z,43.25
2023-02-01T19:24:28.065Z,40.63
2023-02-01T19:27:01.656Z,42.25
2023-02-01T19:29:37.545Z,41.53
2023-02-01T19:32:10.790Z,39.95
2023-02-01T19:34:44.177Z,36.60
2023-02-01T19:37:17.389Z,37.10
2023-02-01T19:39:50.864Z,33.88
2023-02-01T19:42:24.303Z,38.85
2023-02-01T19:47:32.886Z,47.45
2023-02-01T19:50:07.686Z,46.17
2023-02-01T19:52:41.009Z,47.67
2023-02-01T19:55:15.118Z,51.83
2023-02-01T19:57:49.017Z,44.95
2023-02-01T20:00:23.511Z,41.15
2023-02-01T20:02:58.470Z,41.65
2023-02-01T20:05:31.729Z,42.72
2023-02-01T20:08:05.364Z,46.28
2023-02-01T20:10:43.670Z,33.15
2023-02-01T20:13:18.391Z,24.90
2023-02-01T20:18:31.843Z,18.20
2023-02-01T20:21:05.439Z,26.58
2023-02-01T20:23:38.689Z,21.42
2023-02-01T20:26:13.204Z,32.03
2023-02-01T20:28:46.942Z,22.10
2023-02-01T20:31:21.723Z,20.13
2023-02-01T20:33:55.147Z,19.20
2023-02-01T20:36:29.928Z,18.30
2023-02-01T20:39:03.601Z,15.52
2023-02-01T20:41:36.921Z,22.52
2023-02-01T20:44:11.079Z,24.58
2023-02-01T20:49:18.928Z,21.35
2023-02-01T20:51:52.885Z,21.58
2023-02-01T20:54:26.300Z,23.63
2023-02-01T20:56:59.952Z,19.67
2023-02-01T20:59:33.378Z,20.85
2023-02-01T21:02:08.813Z,20.35
2023-02-01T21:04:42.202Z,20.80
2023-02-01T21:07:15.390Z,17.58
2023-02-01T21:09:48.647Z,17.10
2023-02-01T21:12:22.780Z,12.07
2023-02-01T21:14:56.855Z,21.58
2023-02-01T21:17:33.190Z,24.58
2023-02-01T21:20:08.590Z,20.55
2023-02-01T21:22:41.762Z,19.40
2023-02-01T21:25:15.066Z,16.73
2023-02-01T21:27:48.324Z,18.63
2023-02-01T21:30:22.092Z,18.35
2023-02-01T21:32:59.467Z,24.25
2023-02-01T21:35:33.158Z,18.75
2023-02-01T21:38:06.426Z,21.27
2023-02-01T21:40:39.650Z,19.55
2023-02-01T21:43:13.024Z,23.55
2023-02-01T21:45:51.381Z,23.30
2023-02-01T21:48:26.851Z,24.92
2023-02-01T21:51:00.266Z,26.10
2023-02-01T21:53:33.840Z,30.08
2023-02-01T21:56:07.879Z,27.85
2023-02-01T21:58:42.065Z,27.02
2023-02-01T22:03:50.268Z,28.25
2023-02-01T22:06:24.872Z,33.85
2023-02-01T22:08:58.846Z,22.58
2023-02-01T22:14:06.077Z,30.10
2023-02-01T22:16:40.141Z,21.02
2023-02-01T22:19:15.450Z,27.35
2023-02-01T22:21:49.620Z,25.05
2023-02-01T22:26:55.895Z,29.67
2023-02-01T22:29:47.433Z,27.45
2023-02-01T22:32:20.722Z,29.55
2023-02-01T22:34:56.158Z,31.80
2023-02-01T22:37:29.531Z,28.60
2023-02-01T22:40:04.763Z,27.65
2023-02-01T22:42:38.265Z,28.88
2023-02-01T22:45:12.267Z,28.40
2023-02-01T22:50:20.581Z,31.73
2023-02-01T22:52:53.875Z,26.42
2023-02-01T22:55:27.125Z,29.13
2023-02-01T22:58:00.875Z,25.42
2023-02-01T23:03:07.858Z,33.42
2023-02-01T23:05:42.541Z,24.13
2023-02-01T23:08:15.743Z,26.67
2023-02-01T23:10:49.020Z,27.55
2023-02-01T23:15:56.628Z,27.05
2023-02-01T23:18:30.608Z,28.83
2023-02-01T23:23:40.956Z,27.70
2023-02-01T23:28:49.787Z,34.83
2023-02-01T23:31:25.329Z,34.72
2023-02-01T23:33:59.866Z,36.17
2023-02-01T23:36:34.868Z,32.08
2023-02-01T23:39:07.978Z,33.55
2023-02-01T23:41:41.433Z,35.83
2023-02-01T23:44:14.804Z,30.90
2023-02-01T23:46:48.068Z,31.55
2023-02-01T23:49:21.494Z,26.05
2023-02-01T23:57:07.907Z,16.58
2023-02-01T23:59:41.456Z,15.98
